createdAt,value
2023-02-12T00:00:00.000Z,16.38
2023-02-12T00:15:00.000Z,18.51
2023-02-12T00:30:00.000Z,17.16
2023-02-12T00:45:00.000Z,16.4
2023-02-12T01:00:00.000Z,16.02
2023-02-12T01:15:00.000Z,15.74
2023-02-12T01:30:00.000Z,15.62
2023-02-12T01:45:00.000Z,15.22
2023-02-12T02:00:00.000Z,15.32
2023-02-12T02:15:00.000Z,15.69
2023-02-12T02:30:00.000Z,17.01
2023-02-12T02:45:00.000Z,14.95
2023-02-12T03:00:00.000Z,14.86
2023-02-12T03:15:00.000Z,14.79
2023-02-12T03:30:00.000Z,14.45
2023-02-12T03:45:00.000Z,15.22
2023-02-12T04:00:00.000Z,14.64
2023-02-12T04:15:00.000Z,14.44
2023-02-12T04:30:00.000Z,14.15
2023-02-12T04:45:00.000Z,14.48
2023-02-12T05:00:00.000Z,14.26
2023-02-12T05:15:00.000Z,15.22
2023-02-12T05:30:00.000Z,16.95
2023-02-12T05:45:00.000Z,16.19
2023-02-12T06:00:00.000Z,15.51
2023-02-12T06:15:00.000Z,16.18
2023-02-12T06:30:00.000Z,16.58
2023-02-12T06:45:00.000Z,17.19
2023-02-12T07:00:00.000Z,17.44
2023-02-12T07:15:00.000Z,18.24
2023-02-12T07:30:00.000Z,18.94
2023-02-12T07:45:00.000Z,20.88
2023-02-12T08:00:00.000Z,19.21
2023-02-12T08:15:00.000Z,19.8
2023-02-12T08:30:00.000Z,20.64
2023-02-12T08:45:00.000Z,20.56
2023-02-12T09:00:00.000Z,23.32
2023-02-12T09:15:00.000Z,24.91
2023-02-12T09:30:00.000Z,27.98
2023-02-12T09:45:00.000Z,26.77
2023-02-12T10:00:00.000Z,27.79
2023-02-12T10:15:00.000Z,26.53
2023-02-12T10:30:00.000Z,22.67
2023-02-12T10:45:00.000Z,22.11
2023-02-12T11:00:00.000Z,22.41
2023-02-12T11:15:00.000Z,20.58
2023-02-12T11:30:00.000Z,14.15
2023-02-12T11:45:00.000Z,12.21
2023-02-12T12:00:00.000Z,12.93
2023-02-12T12:15:00.000Z,10.19
2023-02-12T12:30:00.000Z,10.86
2023-02-12T12:45:00.000Z,11.84
2023-02-12T13:00:00.000Z,12.94
2023-02-12T13:15:00.000Z,16.64
2023-02-12T13:30:00.000Z,11.96
2023-02-12T13:45:00.000Z,9.92
2023-02-12T14:00:00.000Z,10.45
2023-02-12T14:15:00.000Z,10.68
2023-02-12T14:30:00.000Z,9.68
2023-02-12T14:45:00.000Z,15.28
2023-02-12T15:00:00.000Z,12.56
2023-02-12T15:15:00.000Z,11.39
2023-02-12T15:30:00.000Z,11.18
2023-02-12T15:45:00.000Z,11.74
2023-02-12T16:00:00.000Z,11.72
2023-02-12T16:15:00.000Z,15.89
2023-02-12T16:30:00.000Z,12.46
2023-02-12T16:45:00.000Z,11.85
2023-02-12T17:00:00.000Z,13.45
2023-02-12T17:15:00.000Z,19.82
2023-02-12T17:30:00.000Z,25.91
2023-02-12T17:45:00.000Z,26.74
2023-02-12T18:00:00.000Z,26.88
2023-02-12T18:15:00.000Z,27.58
2023-02-12T18:30:00.000Z,28.36
2023-02-12T18:45:00.000Z,28.56
2023-02-12T19:00:00.000Z,29.54
2023-02-12T19:15:00.000Z,34.75
2023-02-12T19:30:00.000Z,35.56
2023-02-12T19:45:00.000Z,32.93
2023-02-12T20:00:00.000Z,36.04
2023-02-12T20:15:00.000Z,32.13
2023-02-12T20:30:00.000Z,31.41
2023-02-12T20:45:00.000Z,29.03
2023-02-12T21:00:00.000Z,27.4
2023-02-12T21:15:00.000Z,25.76
2023-02-12T21:30:00.000Z,27.92
2023-02-12T21:45:00.000Z,27.96
2023-02-12T22:00:00.000Z,27.28
2023-02-12T22:15:00.000Z,27.58
2023-02-12T22:30:00.000Z,28.19
2023-02-12T22:45:00.000Z,28.36
2023-02-12T23:00:00.000Z,27.67
2023-02-12T23:15:00.000Z,28.2
2023-02-12T23:30:00.000Z,29.66
2023-02-12T23:45:00.000Z,29.4
